createdAt,value
2024-03-06T00:00:05.808Z,2.35
2024-03-06T00:02:34.078Z,1.73
2024-03-06T00:05:02.047Z,2.35
2024-03-06T00:07:30.816Z,2.35
2024-03-06T00:09:58.867Z,2.00
2024-03-06T00:12:27.269Z,2.72
2024-03-06T00:14:55.016Z,2.25
2024-03-06T00:17:24.137Z,2.38
2024-03-06T00:19:52.278Z,2.55
2024-03-06T00:22:23.799Z,2.72
2024-03-06T00:24:52.299Z,2.88
2024-03-06T00:27:20.956Z,3.10
2024-03-06T00:29:48.727Z,2.08
2024-03-06T00:32:17.395Z,2.90
2024-03-06T00:34:46.593Z,2.60
2024-03-06T00:37:15.052Z,2.65
2024-03-06T00:39:43.053Z,2.67
2024-03-06T00:42:12.337Z,2.38
2024-03-06T00:44:40.109Z,2.45
2024-03-06T00:47:08.588Z,2.67
2024-03-06T00:49:36.692Z,2.13
2024-03-06T00:52:06.800Z,2.70
2024-03-06T00:54:34.828Z,1.73
2024-03-06T00:57:03.213Z,2.72
2024-03-06T00:59:30.932Z,2.60
2024-03-06T01:01:59.361Z,1.83
2024-03-06T01:04:27.824Z,2.83
2024-03-06T01:06:56.244Z,2.95
2024-03-06T01:09:25.898Z,3.38
2024-03-06T01:11:54.314Z,2.35
2024-03-06T01:14:22.085Z,2.30
2024-03-06T01:16:50.185Z,3.47
2024-03-06T01:19:17.918Z,3.25
2024-03-06T01:21:45.980Z,2.55
2024-03-06T01:24:13.714Z,3.05
2024-03-06T01:26:43.466Z,2.95
2024-03-06T01:29:11.337Z,3.60
2024-03-06T01:31:39.757Z,3.25
2024-03-06T01:34:07.515Z,2.63
2024-03-06T01:36:36.261Z,3.30
2024-03-06T01:39:04.123Z,3.33
2024-03-06T01:41:32.480Z,3.10
2024-03-06T01:44:01.659Z,3.30
2024-03-06T01:46:29.448Z,2.72
2024-03-06T01:48:59.816Z,2.75
2024-03-06T01:51:29.322Z,3.13
2024-03-06T01:53:57.524Z,3.05
2024-03-06T01:56:26.326Z,3.47
2024-03-06T01:58:55.909Z,2.83
2024-03-06T02:01:26.484Z,3.83
2024-03-06T02:03:54.843Z,4.28
2024-03-06T02:06:23.938Z,3.25
2024-03-06T02:08:52.545Z,3.97
2024-03-06T02:11:21.143Z,4.90
2024-03-06T02:13:49.179Z,3.95
2024-03-06T02:16:17.684Z,2.72
2024-03-06T02:18:55.018Z,2.85
2024-03-06T02:21:24.436Z,3.00
2024-03-06T02:23:53.210Z,3.90
2024-03-06T02:26:21.720Z,4.13
2024-03-06T02:28:51.084Z,3.75
2024-03-06T02:31:20.837Z,3.20
2024-03-06T02:33:49.917Z,3.78
2024-03-06T02:36:18.977Z,4.13
2024-03-06T02:38:48.492Z,3.13
2024-03-06T02:41:19.636Z,4.55
2024-03-06T02:43:47.735Z,3.85
2024-03-06T02:46:16.869Z,4.25
2024-03-06T02:48:44.662Z,4.32
2024-03-06T02:51:12.986Z,3.45
2024-03-06T02:53:40.780Z,4.47
2024-03-06T02:56:10.649Z,3.60
2024-03-06T02:58:38.486Z,3.40
2024-03-06T03:01:06.765Z,3.35
2024-03-06T03:03:34.502Z,3.85
2024-03-06T03:06:02.913Z,4.18
2024-03-06T03:08:30.792Z,3.58
2024-03-06T03:10:59.190Z,4.78
2024-03-06T03:13:28.378Z,3.55
2024-03-06T03:15:57.051Z,4.35
2024-03-06T03:18:24.825Z,4.07
2024-03-06T03:20:52.959Z,4.32
2024-03-06T03:23:23.270Z,3.20
2024-03-06T03:25:51.379Z,4.45
2024-03-06T03:28:19.161Z,4.75
2024-03-06T03:30:48.621Z,4.13
2024-03-06T03:33:16.379Z,4.45
2024-03-06T03:35:44.909Z,4.25
2024-03-06T03:38:12.774Z,4.75
2024-03-06T03:40:41.302Z,5.40
2024-03-06T03:43:09.933Z,3.83
2024-03-06T03:45:38.381Z,3.10
2024-03-06T03:48:08.279Z,3.65
2024-03-06T03:50:36.701Z,4.15
2024-03-06T03:53:05.188Z,3.85
2024-03-06T03:55:33.353Z,5.90
2024-03-06T03:58:01.118Z,5.65
2024-03-06T04:00:29.469Z,3.55
2024-03-06T04:02:57.245Z,4.40
2024-03-06T04:05:27.789Z,4.40
2024-03-06T04:07:55.707Z,4.95
2024-03-06T04:10:24.068Z,5.65
2024-03-06T04:12:51.809Z,5.55
2024-03-06T04:15:20.057Z,4.15
2024-03-06T04:17:48.116Z,3.10
2024-03-06T04:20:16.920Z,4.70
2024-03-06T04:22:47.510Z,3.50
2024-03-06T04:25:15.452Z,4.15
2024-03-06T04:27:43.778Z,4.13
2024-03-06T04:30:13.038Z,3.78
2024-03-06T04:32:41.153Z,4.15
2024-03-06T04:35:10.489Z,4.50
2024-03-06T04:37:38.696Z,4.50
2024-03-06T04:40:09.726Z,3.95
2024-03-06T04:42:37.926Z,4.35
2024-03-06T04:45:11.156Z,5.22
2024-03-06T04:47:39.149Z,3.90
2024-03-06T04:50:11.358Z,4.35
2024-03-06T04:52:39.616Z,4.78
2024-03-06T04:55:11.346Z,2.97
2024-03-06T04:57:39.647Z,4.18
2024-03-06T05:00:09.784Z,4.53
2024-03-06T05:58:08.510Z,5.45
2024-03-06T06:00:39.406Z,4.57
2024-03-06T06:03:07.863Z,4.97
2024-03-06T06:05:38.075Z,5.88
2024-03-06T06:08:06.826Z,6.18
2024-03-06T06:10:35.881Z,5.40
2024-03-06T06:13:05.757Z,5.65
2024-03-06T06:15:34.280Z,5.00
2024-03-06T06:18:03.687Z,5.35
2024-03-06T06:20:32.269Z,8.43
2024-03-06T06:23:00.364Z,6.68
2024-03-06T06:25:28.835Z,6.18
2024-03-06T06:27:56.619Z,4.68
2024-03-06T06:30:24.993Z,6.40
2024-03-06T06:32:52.841Z,5.75
2024-03-06T06:35:23.809Z,5.72
2024-03-06T06:37:51.568Z,6.07
2024-03-06T06:40:20.995Z,6.88
2024-03-06T06:42:52.190Z,7.13
2024-03-06T06:45:21.403Z,7.22
2024-03-06T06:47:50.485Z,6.47
2024-03-06T06:50:21.205Z,6.40
2024-03-06T06:52:50.647Z,5.75
2024-03-06T06:55:18.774Z,6.45
2024-03-06T06:57:46.567Z,7.25
2024-03-06T07:00:17.798Z,5.75
2024-03-06T07:02:45.951Z,5.47
2024-03-06T07:05:14.532Z,6.32
2024-03-06T07:07:42.785Z,5.60
2024-03-06T07:10:12.324Z,5.28
2024-03-06T07:12:40.089Z,6.18
2024-03-06T07:15:08.785Z,5.70
2024-03-06T07:17:36.824Z,5.80
2024-03-06T07:20:06.546Z,4.53
2024-03-06T07:22:35.116Z,5.72
2024-03-06T07:25:03.257Z,5.18
2024-03-06T07:27:32.367Z,5.57
2024-03-06T07:30:00.442Z,3.90
2024-03-06T07:32:28.563Z,5.57
2024-03-06T07:34:56.321Z,5.90
2024-03-06T07:37:24.116Z,5.45
2024-03-06T07:39:53.895Z,5.15
2024-03-06T07:42:22.585Z,4.85
2024-03-06T07:44:52.114Z,5.15
2024-03-06T07:47:19.958Z,4.35
2024-03-06T07:49:47.936Z,5.50
2024-03-06T07:52:15.991Z,5.03
2024-03-06T07:54:43.777Z,5.82
2024-03-06T07:57:11.826Z,6.20
2024-03-06T07:59:39.629Z,5.38
2024-03-06T08:02:08.801Z,5.15
2024-03-06T08:04:37.302Z,4.95
2024-03-06T08:07:05.037Z,4.82
2024-03-06T08:09:32.784Z,4.47
2024-03-06T08:12:00.629Z,5.32
2024-03-06T08:14:29.627Z,4.43
2024-03-06T08:16:58.276Z,4.47
2024-03-06T08:19:27.738Z,4.63
2024-03-06T08:21:55.957Z,5.80
2024-03-06T08:24:23.786Z,4.97
2024-03-06T08:26:51.560Z,4.88
2024-03-06T08:29:19.390Z,5.60
2024-03-06T08:31:47.164Z,4.65
2024-03-06T08:34:15.033Z,4.45
2024-03-06T08:36:44.147Z,5.32
2024-03-06T08:39:14.683Z,5.97
2024-03-06T08:41:43.589Z,4.68
2024-03-06T08:44:11.345Z,4.15
2024-03-06T08:46:39.516Z,5.57
2024-03-06T08:49:09.604Z,6.65
2024-03-06T08:51:39.430Z,5.55
2024-03-06T08:54:13.548Z,4.85
2024-03-06T08:56:44.825Z,5.00
2024-03-06T08:59:13.049Z,5.20
2024-03-06T09:01:41.582Z,4.75
2024-03-06T09:04:09.392Z,6.28
2024-03-06T09:06:37.218Z,4.45
2024-03-06T09:09:06.810Z,6.47
2024-03-06T09:11:35.966Z,5.63
2024-03-06T09:14:05.669Z,5.05
2024-03-06T09:16:33.871Z,5.80
2024-03-06T09:19:01.668Z,6.22
2024-03-06T09:21:30.057Z,4.28
2024-03-06T09:23:57.871Z,3.83
2024-03-06T09:26:26.096Z,6.07
2024-03-06T09:28:55.292Z,6.53
2024-03-06T09:31:23.348Z,6.35
2024-03-06T09:33:51.102Z,6.32
2024-03-06T09:36:18.907Z,6.72
2024-03-06T09:38:46.891Z,6.60
2024-03-06T09:41:15.572Z,6.63
2024-03-06T09:43:45.666Z,7.10
2024-03-06T09:46:15.435Z,5.82
2024-03-06T09:48:48.298Z,6.32
2024-03-06T09:51:16.569Z,5.10
2024-03-06T09:53:45.080Z,6.50
2024-03-06T09:56:14.436Z,6.82
2024-03-06T09:58:43.222Z,7.28
2024-03-06T10:01:13.487Z,7.97
2024-03-06T10:03:43.011Z,6.45
2024-03-06T10:06:13.340Z,7.97
2024-03-06T10:08:44.375Z,6.70
2024-03-06T10:11:13.985Z,7.88
2024-03-06T10:13:41.842Z,6.47
2024-03-06T10:16:11.220Z,6.55
2024-03-06T10:18:40.296Z,6.43
2024-03-06T10:21:10.359Z,6.05
2024-03-06T10:23:39.628Z,6.95
2024-03-06T10:26:10.639Z,6.03
2024-03-06T10:28:40.195Z,6.22
2024-03-06T10:31:08.940Z,5.53
2024-03-06T10:33:39.169Z,5.63
2024-03-06T10:36:07.515Z,6.20
2024-03-06T10:38:41.734Z,7.13
2024-03-06T10:41:18.500Z,6.70
2024-03-06T10:43:52.468Z,5.55
2024-03-06T10:46:22.358Z,6.78
2024-03-06T10:48:52.947Z,5.88
2024-03-06T10:51:22.211Z,5.38
2024-03-06T10:53:53.036Z,6.40
2024-03-06T10:56:23.095Z,5.40
2024-03-06T10:58:53.112Z,5.53
2024-03-06T11:01:21.463Z,6.88
2024-03-06T11:03:50.538Z,6.13
2024-03-06T11:06:18.981Z,6.38
2024-03-06T11:08:47.329Z,4.07
2024-03-06T11:11:23.554Z,5.15
2024-03-06T11:13:52.217Z,4.15
2024-03-06T11:16:20.070Z,3.35
2024-03-06T11:18:48.997Z,4.40
2024-03-06T11:21:33.562Z,3.95
2024-03-06T11:24:21.567Z,4.75
2024-03-06T11:26:52.300Z,4.35
2024-03-06T11:29:21.762Z,4.40
2024-03-06T11:32:09.713Z,3.50
2024-03-06T11:34:38.782Z,4.82
2024-03-06T11:37:11.265Z,4.28
2024-03-06T11:39:42.254Z,5.32
2024-03-06T11:42:13.455Z,4.47
2024-03-06T11:44:55.866Z,2.70
2024-03-06T11:47:24.062Z,3.58
2024-03-06T11:49:54.310Z,4.75
2024-03-06T11:52:22.252Z,3.53
2024-03-06T11:54:50.198Z,3.20
2024-03-06T11:57:22.773Z,5.10
2024-03-06T11:59:50.672Z,4.40
2024-03-06T12:02:19.051Z,4.25
2024-03-06T12:04:46.949Z,3.30
2024-03-06T12:07:17.068Z,3.83
2024-03-06T12:09:44.782Z,4.35
2024-03-06T12:12:13.971Z,3.67
2024-03-06T12:14:43.655Z,4.63
2024-03-06T12:17:15.687Z,4.00
2024-03-06T12:19:46.206Z,2.80
2024-03-06T12:22:16.071Z,3.22
2024-03-06T12:24:44.422Z,4.07
2024-03-06T12:27:13.971Z,3.38
2024-03-06T12:29:44.315Z,4.93
2024-03-06T12:32:20.951Z,3.97
2024-03-06T12:34:59.563Z,4.03
2024-03-06T12:37:35.962Z,3.78
2024-03-06T12:40:06.440Z,3.53
2024-03-06T12:42:34.683Z,4.30
2024-03-06T12:45:04.947Z,3.97
2024-03-06T12:47:33.310Z,4.22
2024-03-06T12:50:01.882Z,4.85
2024-03-06T12:52:29.717Z,4.22
2024-03-06T12:54:57.869Z,4.70
2024-03-06T12:57:26.081Z,4.35
2024-03-06T12:59:53.876Z,5.00
2024-03-06T13:02:23.393Z,3.70
2024-03-06T13:04:51.217Z,4.78
2024-03-06T13:07:19.011Z,3.80
2024-03-06T13:09:46.809Z,3.90
2024-03-06T13:12:14.633Z,2.72
2024-03-06T13:14:42.500Z,3.17
2024-03-06T13:17:10.357Z,3.22
2024-03-06T13:19:39.471Z,3.85
2024-03-06T13:22:08.470Z,4.75
2024-03-06T13:24:39.609Z,4.57
2024-03-06T13:27:09.360Z,3.10
2024-03-06T13:29:37.204Z,2.92
2024-03-06T13:32:06.109Z,3.63
2024-03-06T13:34:33.870Z,4.35
2024-03-06T13:37:03.176Z,5.50
2024-03-06T13:39:30.896Z,3.47
2024-03-06T13:41:59.348Z,5.15
2024-03-06T13:44:27.155Z,4.45
2024-03-06T13:46:55.611Z,4.20
2024-03-06T13:49:37.220Z,3.55
2024-03-06T13:52:08.389Z,2.50
2024-03-06T13:54:36.640Z,4.13
2024-03-06T13:57:04.753Z,2.70
2024-03-06T13:59:33.249Z,3.58
2024-03-06T14:02:01.741Z,4.15
2024-03-06T14:04:29.563Z,5.18
2024-03-06T14:06:59.698Z,2.85
2024-03-06T14:09:29.319Z,2.80
2024-03-06T14:11:57.591Z,4.00
2024-03-06T14:14:25.647Z,3.03
2024-03-06T14:16:53.742Z,2.88
2024-03-06T14:19:22.949Z,3.97
2024-03-06T14:21:50.749Z,3.38
2024-03-06T14:24:19.669Z,3.25
2024-03-06T14:26:50.031Z,3.88
2024-03-06T14:29:18.009Z,3.72
2024-03-06T14:31:45.888Z,4.95
2024-03-06T14:34:15.281Z,3.70
2024-03-06T14:36:43.539Z,3.88
2024-03-06T14:39:12.379Z,4.57
2024-03-06T14:41:40.296Z,3.22
2024-03-06T14:44:09.813Z,3.80
2024-03-06T14:46:37.776Z,4.63
2024-03-06T14:49:05.973Z,3.60
2024-03-06T14:51:33.853Z,3.78
2024-03-06T14:54:01.912Z,3.75
2024-03-06T14:56:29.863Z,4.03
2024-03-06T14:58:57.654Z,2.70
2024-03-06T15:01:27.121Z,3.13
2024-03-06T15:03:56.910Z,2.22
2024-03-06T15:06:24.795Z,3.17
2024-03-06T15:08:52.580Z,2.45
2024-03-06T15:11:22.647Z,2.38
2024-03-06T15:13:50.463Z,3.58
2024-03-06T15:16:18.590Z,2.53
2024-03-06T15:18:48.265Z,2.33
2024-03-06T15:21:18.092Z,3.17
2024-03-06T15:23:45.993Z,3.78
2024-03-06T15:26:15.485Z,2.95
2024-03-06T15:28:43.277Z,3.33
2024-03-06T15:31:11.128Z,2.75
2024-03-06T15:33:38.974Z,3.00
2024-03-06T15:36:09.023Z,2.53
2024-03-06T15:38:36.880Z,2.75
2024-03-06T15:41:04.812Z,3.20
2024-03-06T15:43:33.115Z,2.38
2024-03-06T15:46:00.895Z,2.55
2024-03-06T15:48:29.924Z,2.63
2024-03-06T15:50:57.925Z,3.67
2024-03-06T15:53:29.465Z,2.88
2024-03-06T15:55:58.115Z,2.95
2024-03-06T15:58:26.265Z,3.50
2024-03-06T16:00:59.338Z,2.03
2024-03-06T16:03:28.989Z,2.85
2024-03-06T16:06:06.816Z,2.55
2024-03-06T16:08:40.542Z,2.88
2024-03-06T16:11:09.149Z,2.35
2024-03-06T16:13:36.997Z,2.78
2024-03-06T16:16:05.103Z,2.50
2024-03-06T16:18:33.055Z,1.55
2024-03-06T16:21:03.536Z,3.45
2024-03-06T16:23:31.412Z,3.50
2024-03-06T16:26:00.563Z,1.52
2024-03-06T16:28:28.335Z,2.47
2024-03-06T16:30:57.773Z,1.83
2024-03-06T16:33:25.867Z,2.53
2024-03-06T16:35:53.742Z,1.98
2024-03-06T16:38:21.572Z,2.80
2024-03-06T16:40:49.906Z,1.77
2024-03-06T16:43:19.001Z,1.88
2024-03-06T16:45:46.990Z,2.42
2024-03-06T16:48:14.846Z,1.85
2024-03-06T16:50:42.865Z,2.50
2024-03-06T16:53:10.714Z,2.10
2024-03-06T16:55:39.077Z,1.50
2024-03-06T16:58:07.138Z,2.75
2024-03-06T17:00:36.921Z,2.05
2024-03-06T17:03:05.890Z,2.53
2024-03-06T17:05:33.946Z,2.85
2024-03-06T17:08:04.307Z,2.17
2024-03-06T17:10:32.326Z,2.65
2024-03-06T17:13:01.389Z,3.65
2024-03-06T17:15:29.183Z,2.78
2024-03-06T17:17:58.326Z,1.92
2024-03-06T17:20:26.486Z,3.17
2024-03-06T17:22:56.654Z,3.20
2024-03-06T17:25:24.748Z,2.38
2024-03-06T17:27:52.509Z,3.80
2024-03-06T17:30:20.454Z,3.38
2024-03-06T17:32:49.531Z,2.47
2024-03-06T17:35:19.193Z,2.78
2024-03-06T17:37:46.947Z,3.60
2024-03-06T17:40:15.113Z,3.65
2024-03-06T17:42:43.516Z,3.78
2024-03-06T17:45:11.362Z,3.28
2024-03-06T17:47:41.084Z,4.72
2024-03-06T17:50:13.312Z,3.15
2024-03-06T17:52:42.658Z,3.88
2024-03-06T17:55:10.846Z,2.78
2024-03-06T17:57:40.563Z,2.00
2024-03-06T18:00:10.411Z,3.53
2024-03-06T18:02:39.552Z,2.88
2024-03-06T18:05:08.646Z,3.17
2024-03-06T18:07:36.815Z,4.38
2024-03-06T18:10:07.172Z,3.05
2024-03-06T18:12:35.285Z,2.92
2024-03-06T18:15:03.050Z,2.70
2024-03-06T18:17:31.236Z,2.80
2024-03-06T18:19:59.186Z,2.15
2024-03-06T18:22:27.537Z,3.25
2024-03-06T18:24:55.873Z,3.42
2024-03-06T18:27:24.938Z,3.38
2024-03-06T18:29:53.237Z,4.00
2024-03-06T18:32:21.157Z,3.83
2024-03-06T18:34:52.006Z,3.25
2024-03-06T18:37:20.657Z,2.78
2024-03-06T18:39:48.414Z,3.15
2024-03-06T18:42:21.374Z,2.88
2024-03-06T18:44:51.959Z,3.90
2024-03-06T18:47:20.185Z,3.30
2024-03-06T18:49:48.057Z,2.88
2024-03-06T18:52:16.225Z,3.92
2024-03-06T18:54:44.131Z,3.55
2024-03-06T18:57:12.195Z,4.65
2024-03-06T18:59:41.737Z,3.58
2024-03-06T19:02:11.378Z,3.58
2024-03-06T19:04:39.108Z,3.00
2024-03-06T19:07:07.161Z,3.63
2024-03-06T19:09:35.386Z,3.33
2024-03-06T19:12:03.330Z,4.28
2024-03-06T19:14:31.390Z,4.70
2024-03-06T19:16:59.129Z,4.78
2024-03-06T19:19:29.206Z,5.40
2024-03-06T19:21:57.155Z,5.18
2024-03-06T19:24:25.053Z,4.63
2024-03-06T19:26:53.166Z,3.53
2024-03-06T19:29:21.638Z,3.08
2024-03-06T19:31:49.890Z,4.40
2024-03-06T19:34:18.553Z,5.80
2024-03-06T19:36:49.307Z,4.45
2024-03-06T19:39:18.361Z,4.00
2024-03-06T19:41:46.385Z,4.65
2024-03-06T19:44:14.487Z,4.18
2024-03-06T19:46:42.570Z,3.58
2024-03-06T19:49:10.586Z,4.93
2024-03-06T19:51:38.648Z,4.15
2024-03-06T19:54:07.733Z,5.30
2024-03-06T19:56:36.244Z,3.75
2024-03-06T19:59:05.119Z,4.57
2024-03-06T20:01:33.264Z,5.15
2024-03-06T20:04:01.577Z,3.28
2024-03-06T20:06:32.015Z,4.43
2024-03-06T20:09:00.083Z,5.15
2024-03-06T20:11:29.679Z,4.10
2024-03-06T20:13:57.847Z,4.88
2024-03-06T20:16:26.424Z,4.10
2024-03-06T20:18:54.496Z,3.40
2024-03-06T20:21:22.869Z,4.88
2024-03-06T20:23:51.782Z,4.70
2024-03-06T20:26:21.682Z,4.88
2024-03-06T20:28:53.312Z,4.82
2024-03-06T20:31:21.134Z,4.85
2024-03-06T20:33:50.934Z,4.10
2024-03-06T20:36:18.750Z,4.55
2024-03-06T20:38:47.122Z,5.45
2024-03-06T20:41:14.966Z,4.82
2024-03-06T20:43:43.074Z,4.50
2024-03-06T20:46:12.232Z,4.60
2024-03-06T20:48:40.703Z,4.80
2024-03-06T20:51:10.393Z,4.82
2024-03-06T20:53:38.899Z,4.57
2024-03-06T20:56:08.566Z,3.35
2024-03-06T20:58:37.040Z,5.28
2024-03-06T21:01:05.796Z,5.43
2024-03-06T21:03:36.511Z,4.88
2024-03-06T21:06:04.573Z,5.72
2024-03-06T21:08:33.016Z,5.32
2024-03-06T21:11:02.170Z,5.13
2024-03-06T21:13:30.499Z,5.70
2024-03-06T21:15:58.277Z,5.80
2024-03-06T21:18:26.463Z,6.20
2024-03-06T21:20:55.619Z,4.75
2024-03-06T21:23:24.707Z,5.90
2024-03-06T21:25:52.934Z,6.13
2024-03-06T21:28:24.700Z,5.63
2024-03-06T21:30:53.754Z,4.70
2024-03-06T21:33:22.110Z,6.22
2024-03-06T21:35:50.248Z,5.05
2024-03-06T21:38:19.450Z,5.35
2024-03-06T21:40:47.262Z,5.70
2024-03-06T21:43:15.386Z,5.82
2024-03-06T21:45:43.460Z,5.28
2024-03-06T21:48:12.758Z,6.68
2024-03-06T21:50:40.715Z,6.28
2024-03-06T21:53:08.495Z,6.78
2024-03-06T21:55:37.621Z,7.32
2024-03-06T21:58:06.310Z,6.07
2024-03-06T22:00:34.078Z,7.13
2024-03-06T22:03:02.349Z,6.00
2024-03-06T22:05:30.122Z,5.07
2024-03-06T22:07:58.222Z,6.25
2024-03-06T22:10:26.842Z,5.78
2024-03-06T22:12:56.563Z,5.85
2024-03-06T22:15:25.126Z,7.32
2024-03-06T22:17:53.685Z,5.80
2024-03-06T22:20:21.491Z,5.90
2024-03-06T22:22:49.816Z,5.57
2024-03-06T22:25:18.068Z,5.50
2024-03-06T22:27:46.280Z,5.60
2024-03-06T22:30:17.142Z,5.75
2024-03-06T22:32:47.102Z,6.07
2024-03-06T22:35:15.168Z,6.10
2024-03-06T22:37:43.256Z,6.93
2024-03-06T22:40:11.643Z,6.78
2024-03-06T22:42:39.933Z,5.40
2024-03-06T22:45:08.920Z,5.28
2024-03-06T22:47:38.417Z,6.75
2024-03-06T22:50:06.828Z,5.57
2024-03-06T22:52:35.189Z,5.80
2024-03-06T22:55:05.637Z,5.70
2024-03-06T22:57:36.029Z,5.93
2024-03-06T23:00:08.410Z,4.85
2024-03-06T23:02:39.306Z,6.00
2024-03-06T23:05:09.920Z,4.43
2024-03-06T23:07:38.050Z,3.13
2024-03-06T23:10:06.736Z,5.57
2024-03-06T23:12:35.084Z,4.15
2024-03-06T23:15:02.968Z,4.57
2024-03-06T23:17:30.866Z,4.57
2024-03-06T23:20:00.576Z,4.13
2024-03-06T23:22:29.507Z,3.42
2024-03-06T23:24:57.244Z,4.70
2024-03-06T23:27:25.283Z,4.30
2024-03-06T23:29:53.736Z,4.03
2024-03-06T23:32:21.553Z,3.53
2024-03-06T23:34:49.324Z,3.03
2024-03-06T23:37:19.022Z,4.43
2024-03-06T23:39:47.185Z,3.17
2024-03-06T23:42:15.001Z,4.15
2024-03-06T23:44:43.452Z,4.13
2024-03-06T23:47:11.275Z,4.05
2024-03-06T23:49:39.625Z,3.22
2024-03-06T23:52:07.341Z,4.57
2024-03-06T23:54:37.927Z,3.65
2024-03-06T23:57:05.907Z,2.58
2024-03-06T23:59:34.625Z,3.15
